Time;durP1;ratioP1;P1;durP2;ratioP2;P2;SDS_P1;SDS_P2;PMS_P1;PMS_P2;Temp;Humidity;BMP_temperature;BMP_pressure;BME280_temperature;BME280_humidity;BME280_pressure;Samples;Min_cycle;Max_cycle;Signal;HPM_P1;HPM_P2
2023/03/21 00:01:02;;;;;;;2.85;1.23;;;10.30;99.90;;;;;;4933353;29;20084;-72
2023/03/21 00:03:29;;;;;;;3.95;1.67;;;10.30;99.90;;;;;;4918483;29;20079;-72
2023/03/21 00:05:54;;;;;;;3.35;1.10;;;10.30;99.90;;;;;;4918679;29;20115;-72
2023/03/21 00:08:22;;;;;;;2.53;1.13;;;10.30;99.90;;;;;;4918856;29;20123;-72
2023/03/21 00:10:58;;;;;;;3.83;1.27;;;10.30;99.90;;;;;;4916035;29;20059;-71
2023/03/21 00:13:25;;;;;;;4.90;1.48;;;10.30;99.90;;;;;;4914778;29;20115;-73
2023/03/21 00:15:53;;;;;;;2.92;1.00;;;10.30;99.90;;;;;;4918150;29;20016;-74
2023/03/21 00:18:21;;;;;;;4.70;1.15;;;10.30;99.90;;;;;;4915233;29;20024;-72
2023/03/21 00:21:04;;;;;;;3.08;1.00;;;10.30;99.90;;;;;;4920203;29;20059;-72
2023/03/21 00:23:31;;;;;;;1.52;0.68;;;10.40;99.90;;;;;;4912106;29;20044;-73
2023/03/21 00:25:58;;;;;;;2.58;0.98;;;10.40;99.90;;;;;;4911966;29;20495;-73
2023/03/21 00:28:24;;;;;;;2.97;1.00;;;10.30;99.90;;;;;;4905460;29;20047;-73
2023/03/21 00:30:55;;;;;;;3.17;1.20;;;10.20;99.90;;;;;;4918621;29;20075;-73
2023/03/21 00:33:21;;;;;;;2.33;0.93;;;10.20;99.90;;;;;;4920519;29;20120;-73
2023/03/21 00:35:51;;;;;;;2.97;1.00;;;10.20;99.90;;;;;;4920445;29;20056;-74
2023/03/21 00:38:17;;;;;;;4.85;1.00;;;10.10;99.90;;;;;;4920251;29;20366;-73
2023/03/21 00:40:43;;;;;;;2.22;0.70;;;10.10;99.90;;;;;;4917361;29;20401;-72
2023/03/21 00:43:10;;;;;;;2.75;0.90;;;10.10;99.90;;;;;;4920284;29;20035;-73
2023/03/21 00:45:36;;;;;;;4.20;0.90;;;10.10;99.90;;;;;;4919081;29;20048;-71
2023/03/21 00:48:03;;;;;;;1.48;0.70;;;10.10;99.90;;;;;;4914346;29;20049;-72
2023/03/21 00:50:31;;;;;;;3.15;0.90;;;10.10;99.90;;;;;;4914547;29;20043;-73
2023/03/21 00:52:57;;;;;;;2.05;0.80;;;10.20;99.90;;;;;;4920250;29;20024;-72
2023/03/21 00:55:23;;;;;;;2.42;0.88;;;10.30;99.90;;;;;;4919978;29;20489;-72
2023/03/21 00:57:49;;;;;;;3.67;1.00;;;10.30;99.90;;;;;;4921768;29;20029;-73
2023/03/21 01:00:17;;;;;;;2.50;0.90;;;10.30;99.90;;;;;;4922616;29;20024;-72
2023/03/21 01:02:55;;;;;;;3.15;0.90;;;10.30;99.90;;;;;;4923455;29;20025;-74
2023/03/21 01:08:11;;;;;;;3.25;0.90;;;10.40;99.90;;;;;;4917367;29;20088;-72
2023/03/21 01:10:41;;;;;;;2.83;0.98;;;10.40;99.90;;;;;;4922666;29;20032;-73
2023/03/21 01:13:07;;;;;;;2.65;1.10;;;10.30;99.90;;;;;;4916916;29;20400;-72
2023/03/21 01:15:34;;;;;;;3.35;1.00;;;10.30;99.90;;;;;;4923443;29;20060;-73
2023/03/21 01:18:00;;;;;;;3.78;1.00;;;10.30;99.90;;;;;;4915416;29;20021;-73
2023/03/21 01:20:26;;;;;;;2.78;0.95;;;10.30;99.90;;;;;;4917075;29;20846;-73
2023/03/21 01:22:51;;;;;;;3.08;0.80;;;10.30;99.90;;;;;;4922207;29;20039;-73
2023/03/21 01:25:17;;;;;;;4.43;1.08;;;10.40;99.90;;;;;;4916938;29;20029;-72
2023/03/21 01:27:43;;;;;;;3.67;0.90;;;10.30;99.90;;;;;;4911254;29;20421;-73
2023/03/21 01:30:09;;;;;;;4.88;0.70;;;10.30;99.90;;;;;;4920804;29;20102;-73
2023/03/21 01:32:35;;;;;;;2.42;0.90;;;10.30;99.90;;;;;;4920923;29;20028;-73
2023/03/21 01:35:00;;;;;;;2.78;1.00;;;10.30;99.90;;;;;;4922112;29;20083;-73
2023/03/21 01:37:26;;;;;;;3.80;0.82;;;10.20;99.90;;;;;;4921120;29;20586;-73
2023/03/21 01:39:52;;;;;;;3.38;1.30;;;10.20;99.90;;;;;;4921536;29;20053;-73
2023/03/21 01:42:17;;;;;;;3.15;0.70;;;10.20;99.90;;;;;;4909535;29;20036;-73
2023/03/21 01:44:56;;;;;;;2.75;0.88;;;10.20;99.90;;;;;;4921233;29;20032;-73
2023/03/21 01:47:23;;;;;;;4.75;1.02;;;10.20;99.90;;;;;;4922646;29;20048;-73
2023/03/21 01:49:51;;;;;;;2.50;0.80;;;10.20;99.90;;;;;;4914114;29;20056;-73
2023/03/21 01:52:22;;;;;;;3.20;1.00;;;10.20;99.90;;;;;;4910584;29;20048;-72
2023/03/21 01:54:49;;;;;;;1.92;0.98;;;10.10;99.90;;;;;;4921606;29;20434;-72
2023/03/21 01:57:31;;;;;;;5.00;1.10;;;10.20;99.90;;;;;;4917655;29;20036;-72
2023/03/21 02:00:06;;;;;;;3.15;1.02;;;10.20;99.90;;;;;;4919881;29;20569;-72
2023/03/21 02:02:36;;;;;;;4.00;0.88;;;10.10;99.90;;;;;;4920620;29;20036;-73
2023/03/21 02:05:02;;;;;;;3.75;1.17;;;10.20;99.90;;;;;;4913761;29;20115;-72
2023/03/21 02:07:34;;;;;;;2.67;0.80;;;10.20;99.90;;;;;;4922278;29;20409;-73
2023/03/21 02:10:03;;;;;;;3.88;0.95;;;10.20;99.90;;;;;;4919593;29;20123;-72
2023/03/21 02:12:30;;;;;;;2.22;0.90;;;10.20;99.90;;;;;;4914989;29;20489;-73
2023/03/21 02:14:56;;;;;;;4.63;0.90;;;10.30;99.90;;;;;;4914446;29;20048;-72
2023/03/21 02:17:53;;;;;;;1.30;0.63;;;10.20;99.90;;;;;;4919222;29;20032;-72
2023/03/21 02:20:40;;;;;;;1.25;0.70;;;10.30;99.90;;;;;;4916542;29;20024;-73
2023/03/21 02:23:09;;;;;;;2.65;0.90;;;10.30;99.90;;;;;;4918974;29;20052;-73
2023/03/21 02:25:55;;;;;;;1.67;0.82;;;10.30;99.90;;;;;;4921746;29;20497;-72
2023/03/21 02:28:28;;;;;;;2.03;0.60;;;10.30;99.90;;;;;;4916485;29;20063;-72
2023/03/21 02:31:18;;;;;;;2.60;1.02;;;10.40;99.90;;;;;;4921539;29;20040;-73
2023/03/21 02:34:12;;;;;;;3.90;0.70;;;10.40;99.90;;;;;;4911492;29;20025;-73
2023/03/21 02:36:43;;;;;;;;;;;10.40;99.90;;;;;;4918051;29;20028;-72
2023/03/21 02:39:23;;;;;;;2.08;1.00;;;10.40;99.90;;;;;;4920602;29;20353;-72
2023/03/21 02:42:10;;;;;;;3.53;0.77;;;10.40;99.90;;;;;;4920661;29;20108;-72
2023/03/21 02:44:41;;;;;;;2.80;0.90;;;10.40;99.90;;;;;;4921931;29;20028;-73
2023/03/21 02:47:31;;;;;;;3.55;1.02;;;10.40;99.90;;;;;;4921669;29;20119;-73
2023/03/21 02:50:13;;;;;;;2.30;0.90;;;10.50;99.90;;;;;;4916560;29;20028;-72
2023/03/21 02:52:41;;;;;;;2.50;0.70;;;10.50;99.90;;;;;;4921875;29;20084;-72
2023/03/21 02:55:21;;;;;;;4.25;0.90;;;10.50;99.90;;;;;;4918843;29;20045;-72
2023/03/21 02:57:51;;;;;;;2.45;0.85;;;10.50;99.90;;;;;;4920569;29;20059;-72
2023/03/21 03:00:21;;;;;;;7.03;1.10;;;10.50;99.90;;;;;;4912677;29;20032;-72
2023/03/21 03:02:51;;;;;;;3.03;1.00;;;10.50;99.90;;;;;;4916165;29;20032;-72
2023/03/21 03:05:29;;;;;;;2.53;1.00;;;10.50;99.90;;;;;;4921629;29;20024;-71
2023/03/21 03:08:10;;;;;;;1.63;0.70;;;10.50;99.90;;;;;;4920906;29;20506;-72
2023/03/21 03:10:58;;;;;;;5.13;0.90;;;10.50;99.90;;;;;;4920858;29;20429;-72
2023/03/21 03:13:56;;;;;;;4.97;1.02;;;10.50;99.90;;;;;;4906107;29;20028;-71
2023/03/21 03:16:51;;;;;;;2.75;0.90;;;10.50;99.90;;;;;;4874879;29;20040;-72
2023/03/21 03:19:28;;;;;;;4.65;0.75;;;10.50;99.90;;;;;;4883255;29;20390;-71
2023/03/21 03:22:07;;;;;;;3.83;0.90;;;10.50;99.90;;;;;;4915641;29;20024;-72
2023/03/21 03:25:06;;;;;;;3.35;0.70;;;10.60;99.90;;;;;;4921404;29;20032;-71
2023/03/21 03:27:36;;;;;;;3.00;0.88;;;10.50;99.90;;;;;;4901203;29;20188;-72
2023/03/21 03:30:04;;;;;;;2.85;0.88;;;10.60;99.90;;;;;;4911109;29;20032;-72
2023/03/21 03:32:43;;;;;;;2.38;0.70;;;10.50;99.90;;;;;;4921056;29;20031;-72
2023/03/21 03:35:12;;;;;;;2.50;0.85;;;10.50;99.90;;;;;;4915777;29;20032;-72
2023/03/21 03:37:39;;;;;;;2.55;0.75;;;10.60;99.90;;;;;;4911326;29;20056;-72
2023/03/21 03:40:14;;;;;;;3.35;1.15;;;10.50;99.90;;;;;;4914900;29;20035;-72
2023/03/21 03:42:51;;;;;;;3.22;1.17;;;10.60;99.90;;;;;;4906107;29;20374;-72
2023/03/21 03:45:19;;;;;;;2.45;0.70;;;10.60;99.90;;;;;;4920990;29;20036;-72
2023/03/21 03:48:02;;;;;;;4.20;0.95;;;10.60;99.90;;;;;;4917702;29;20092;-73
2023/03/21 03:50:52;;;;;;;1.55;0.68;;;10.60;99.90;;;;;;4920171;29;20055;-72
2023/03/21 03:53:28;;;;;;;3.17;0.80;;;10.50;99.90;;;;;;4911727;29;20063;-72
2023/03/21 03:55:55;;;;;;;3.22;0.85;;;10.60;99.90;;;;;;4920297;29;20052;-73
2023/03/21 03:58:23;;;;;;;3.67;0.80;;;10.60;99.90;;;;;;4919052;29;20506;-72
2023/03/21 04:00:50;;;;;;;3.67;1.00;;;10.60;99.90;;;;;;4910384;29;20084;-72
2023/03/21 04:03:17;;;;;;;3.25;0.82;;;10.60;99.90;;;;;;4916974;29;20046;-71
2023/03/21 04:05:45;;;;;;;2.65;0.80;;;10.60;99.90;;;;;;4920541;29;20032;-71
2023/03/21 04:08:12;;;;;;;2.63;0.82;;;10.60;99.90;;;;;;4920363;29;20028;-72
2023/03/21 04:10:38;;;;;;;4.18;1.10;;;10.60;99.90;;;;;;4918944;29;20028;-72
2023/03/21 04:13:04;;;;;;;6.35;1.00;;;10.60;99.90;;;;;;4918400;29;20032;-71
2023/03/21 04:15:29;;;;;;;5.28;1.00;;;10.70;99.90;;;;;;4919281;29;20469;-71
2023/03/21 04:17:55;;;;;;;2.92;0.90;;;10.60;99.90;;;;;;4919170;29;20119;-73
2023/03/21 04:20:20;;;;;;;2.22;0.90;;;10.70;99.90;;;;;;4918959;29;20020;-73
2023/03/21 04:22:47;;;;;;;3.03;0.95;;;10.70;99.90;;;;;;4903950;29;20033;-73
2023/03/21 04:25:13;;;;;;;1.35;0.63;;;10.60;99.90;;;;;;4915943;29;20016;-72
2023/03/21 04:27:39;;;;;;;4.22;1.00;;;10.70;99.90;;;;;;4912189;29;20044;-73
2023/03/21 04:30:06;;;;;;;1.83;1.00;;;10.70;99.90;;;;;;4914713;29;20028;-72
2023/03/21 04:32:32;;;;;;;4.55;0.88;;;10.70;99.90;;;;;;4922771;29;20032;-71
2023/03/21 04:34:59;;;;;;;3.88;1.08;;;10.70;99.90;;;;;;4920796;29;20029;-72
2023/03/21 04:37:26;;;;;;;3.35;1.00;;;10.70;99.90;;;;;;4923628;29;20036;-73
2023/03/21 04:39:52;;;;;;;1.70;0.70;;;10.80;99.90;;;;;;4924159;29;20016;-72
2023/03/21 04:42:19;;;;;;;3.47;1.10;;;10.70;99.90;;;;;;4920961;29;20412;-72
2023/03/21 04:44:45;;;;;;;2.45;0.90;;;10.80;99.90;;;;;;4908571;29;20029;-72
2023/03/21 04:47:12;;;;;;;3.67;0.95;;;10.70;99.90;;;;;;4923186;29;20132;-73
2023/03/21 04:49:38;;;;;;;1.67;0.88;;;10.80;99.90;;;;;;4919691;29;20581;-72
2023/03/21 04:52:04;;;;;;;2.97;0.77;;;10.70;99.90;;;;;;4922192;29;20040;-73
2023/03/21 04:54:31;;;;;;;4.03;0.90;;;10.80;99.90;;;;;;4921717;29;20035;-72
2023/03/21 04:56:57;;;;;;;2.63;1.13;;;10.70;99.90;;;;;;4923777;29;20103;-72
2023/03/21 04:59:23;;;;;;;2.78;0.90;;;10.70;99.90;;;;;;4923885;29;20020;-72
2023/03/21 05:01:49;;;;;;;3.08;0.80;;;10.70;99.90;;;;;;4921917;29;20084;-73
2023/03/21 05:04:15;;;;;;;2.35;1.13;;;10.80;99.90;;;;;;4923919;29;20039;-72
2023/03/21 05:06:41;;;;;;;2.65;1.10;;;10.80;99.90;;;;;;4922722;29;20070;-73
2023/03/21 05:09:07;;;;;;;2.50;1.00;;;10.80;99.90;;;;;;4923653;29;20159;-72
2023/03/21 05:11:36;;;;;;;3.17;1.20;;;10.70;99.90;;;;;;4923264;29;20072;-72
2023/03/21 05:14:07;;;;;;;2.55;1.13;;;10.70;99.90;;;;;;4912122;29;20040;-73
2023/03/21 05:16:35;;;;;;;1.20;0.80;;;10.80;99.90;;;;;;4922310;29;20087;-73
2023/03/21 05:19:04;;;;;;;0.80;0.60;;;10.80;99.90;;;;;;4919472;29;20492;-73
2023/03/21 05:21:40;;;;;;;5.53;1.00;;;10.80;99.90;;;;;;4921934;29;20036;-73
2023/03/21 05:24:12;;;;;;;3.85;0.90;;;10.80;99.90;;;;;;4921399;29;20412;-73
2023/03/21 05:26:38;;;;;;;3.03;1.05;;;10.80;99.90;;;;;;4922203;29;20044;-72
2023/03/21 05:29:04;;;;;;;2.05;0.77;;;10.80;99.90;;;;;;4915532;29;20039;-73
2023/03/21 05:31:30;;;;;;;3.20;0.90;;;10.70;99.90;;;;;;4914510;29;20032;-72
2023/03/21 05:33:55;;;;;;;2.35;0.95;;;10.60;99.90;;;;;;4915973;29;20032;-72
2023/03/21 05:36:21;;;;;;;2.78;1.00;;;10.70;99.90;;;;;;4923073;29;20477;-72
2023/03/21 05:38:46;;;;;;;3.55;1.27;;;10.60;99.90;;;;;;4920167;29;20031;-72
2023/03/21 05:41:13;;;;;;;2.60;1.25;;;10.70;99.90;;;;;;4908765;29;20024;-71
2023/03/21 05:43:40;;;;;;;3.22;1.20;;;10.70;99.90;;;;;;4920079;29;20119;-72
2023/03/21 05:46:06;;;;;;;7.90;1.50;;;10.80;99.90;;;;;;4910657;29;20082;-71
2023/03/21 05:48:33;;;;;;;2.00;1.17;;;10.80;99.90;;;;;;4909702;29;20111;-72
2023/03/21 05:50:59;;;;;;;2.67;1.13;;;10.80;99.90;;;;;;4920519;29;20064;-72
2023/03/21 05:53:25;;;;;;;3.20;1.45;;;10.80;99.90;;;;;;4916303;29;20469;-72
2023/03/21 05:55:51;;;;;;;2.47;1.30;;;10.80;99.90;;;;;;4910091;29;20041;-73
2023/03/21 05:58:16;;;;;;;3.75;1.25;;;10.80;99.90;;;;;;4920130;29;20056;-72
2023/03/21 06:00:42;;;;;;;4.25;1.20;;;10.90;99.90;;;;;;4912649;29;20039;-72
2023/03/21 06:03:08;;;;;;;2.67;1.20;;;10.90;99.90;;;;;;4921276;29;20032;-72
2023/03/21 06:05:33;;;;;;;3.35;1.30;;;10.90;99.90;;;;;;4922323;29;20044;-72
2023/03/21 06:08:05;;;;;;;3.47;1.17;;;10.90;99.90;;;;;;4911738;29;20029;-72
2023/03/21 06:10:31;;;;;;;2.25;1.08;;;10.90;99.90;;;;;;4919732;29;20036;-73
2023/03/21 06:12:57;;;;;;;2.15;1.15;;;10.90;99.90;;;;;;4906730;29;20032;-72
2023/03/21 06:15:22;;;;;;;3.85;1.83;;;10.90;99.90;;;;;;4921802;29;20028;-72
2023/03/21 06:17:48;;;;;;;3.22;1.30;;;10.90;99.90;;;;;;4913035;29;20375;-72
2023/03/21 06:20:14;;;;;;;3.85;1.20;;;11.00;99.90;;;;;;4920418;29;20036;-72
2023/03/21 06:22:40;;;;;;;4.43;1.30;;;11.00;99.90;;;;;;4921793;29;20032;-73
2023/03/21 06:25:06;;;;;;;5.00;1.35;;;11.00;99.90;;;;;;4920990;29;20032;-72
2023/03/21 06:27:33;;;;;;;1.65;1.25;;;11.00;99.90;;;;;;4922071;29;20024;-72
2023/03/21 06:29:58;;;;;;;2.13;1.15;;;11.00;99.90;;;;;;4920477;29;20036;-72
2023/03/21 06:32:25;;;;;;;2.90;1.45;;;11.00;99.90;;;;;;4918320;29;20036;-72
2023/03/21 06:34:51;;;;;;;2.35;1.30;;;11.00;99.90;;;;;;4914646;29;20032;-72
2023/03/21 06:37:17;;;;;;;2.97;1.17;;;11.10;99.90;;;;;;4915093;29;20075;-72
2023/03/21 06:39:45;;;;;;;2.80;1.10;;;11.10;99.90;;;;;;4908130;29;20032;-72
2023/03/21 06:42:12;;;;;;;2.67;1.10;;;11.10;99.90;;;;;;4921401;29;20031;-73
2023/03/21 06:44:37;;;;;;;3.13;1.20;;;11.20;99.90;;;;;;4921002;29;20040;-73
2023/03/21 06:47:03;;;;;;;1.33;1.10;;;11.20;99.90;;;;;;4911360;29;20052;-73
2023/03/21 06:49:29;;;;;;;2.25;1.02;;;11.20;99.90;;;;;;4917291;29;20042;-72
2023/03/21 06:51:55;;;;;;;3.40;1.02;;;11.30;99.90;;;;;;4916578;29;20038;-72
2023/03/21 06:54:21;;;;;;;2.10;1.17;;;11.30;99.90;;;;;;4910361;29;20111;-73
2023/03/21 06:56:46;;;;;;;1.92;1.20;;;11.40;99.90;;;;;;4916676;29;20024;-73
2023/03/21 06:59:12;;;;;;;2.30;1.00;;;11.40;99.90;;;;;;4906466;29;20060;-73
2023/03/21 07:01:38;;;;;;;2.35;0.88;;;11.40;99.90;;;;;;4917554;29;20043;-72
2023/03/21 07:04:05;;;;;;;3.20;1.20;;;11.40;99.90;;;;;;4918930;29;20088;-72
2023/03/21 07:06:31;;;;;;;2.45;1.17;;;11.50;99.90;;;;;;4921547;29;20024;-71
2023/03/21 07:08:57;;;;;;;3.25;1.00;;;11.50;99.90;;;;;;4920265;29;20031;-73
2023/03/21 07:11:23;;;;;;;2.00;1.00;;;11.60;99.90;;;;;;4919087;29;20024;-72
2023/03/21 07:13:50;;;;;;;2.10;1.27;;;11.60;99.90;;;;;;4918197;29;20059;-72
2023/03/21 07:16:17;;;;;;;1.70;0.95;;;11.70;99.90;;;;;;4912218;29;20112;-72
2023/03/21 07:18:43;;;;;;;1.33;0.90;;;11.70;99.90;;;;;;4910450;29;20039;-73
2023/03/21 07:21:10;;;;;;;1.60;1.00;;;11.80;99.90;;;;;;4913832;29;20028;-71
2023/03/21 07:23:37;;;;;;;1.52;1.02;;;11.80;99.90;;;;;;4914861;29;20047;-72
2023/03/21 07:26:04;;;;;;;1.60;1.00;;;11.90;99.90;;;;;;4917730;29;20103;-71
2023/03/21 07:28:30;;;;;;;1.83;1.30;;;11.90;99.90;;;;;;4910959;29;20055;-72
2023/03/21 07:30:59;;;;;;;2.58;1.30;;;12.00;99.90;;;;;;4911654;29;20110;-72
2023/03/21 07:33:26;;;;;;;3.55;1.30;;;12.10;99.90;;;;;;4916813;29;20093;-72
2023/03/21 07:35:52;;;;;;;2.30;1.30;;;12.20;99.90;;;;;;4915300;29;20032;-72
2023/03/21 07:38:19;;;;;;;4.75;1.63;;;12.30;99.90;;;;;;4919064;29;20031;-72
2023/03/21 07:40:46;;;;;;;2.95;1.70;;;12.30;99.90;;;;;;4913525;29;20032;-72
2023/03/21 07:43:13;;;;;;;3.15;1.35;;;12.30;99.90;;;;;;4917932;29;20197;-72
2023/03/21 07:45:38;;;;;;;4.57;2.00;;;12.20;99.90;;;;;;4913216;29;20115;-71
2023/03/21 07:48:04;;;;;;;3.47;1.60;;;12.30;99.90;;;;;;4911509;29;20076;-73
2023/03/21 07:50:30;;;;;;;2.00;1.25;;;12.30;99.90;;;;;;4911878;29;20028;-72
2023/03/21 07:52:57;;;;;;;2.42;1.38;;;12.40;99.90;;;;;;4918479;29;20099;-68
2023/03/21 07:55:22;;;;;;;2.10;1.30;;;12.50;99.90;;;;;;4912478;29;20065;-71
2023/03/21 07:57:52;;;;;;;2.70;1.10;;;12.50;99.90;;;;;;4910023;29;20084;-70
2023/03/21 08:00:21;;;;;;;2.85;1.10;;;12.60;99.90;;;;;;4920520;29;20024;-71
2023/03/21 08:02:55;;;;;;;3.05;1.02;;;12.60;99.90;;;;;;4920327;29;20024;-71
2023/03/21 08:05:24;;;;;;;;;;;12.70;99.90;;;;;;4920887;29;20738;-71
2023/03/21 08:07:50;;;;;;;1.13;0.73;;;12.70;99.90;;;;;;4920076;29;19907;-71
2023/03/21 08:10:17;;;;;;;1.65;0.90;;;12.70;99.90;;;;;;4919048;29;20390;-67
2023/03/21 08:12:43;;;;;;;2.15;1.00;;;12.80;99.90;;;;;;4919290;29;20036;-67
2023/03/21 08:15:10;;;;;;;2.15;1.02;;;12.90;99.90;;;;;;4914808;29;20044;-66
2023/03/21 08:17:36;;;;;;;1.33;0.93;;;12.90;99.90;;;;;;4908143;29;20031;-67
2023/03/21 08:20:06;;;;;;;1.63;0.90;;;13.00;99.90;;;;;;4910185;29;20040;-67
2023/03/21 08:22:32;;;;;;;2.63;0.80;;;13.00;99.90;;;;;;4915660;29;20489;-68
2023/03/21 08:24:57;;;;;;;2.42;1.00;;;13.00;99.90;;;;;;4910080;29;20075;-69
2023/03/21 08:27:23;;;;;;;2.22;1.00;;;13.00;99.90;;;;;;4908009;29;20036;-67
2023/03/21 08:29:49;;;;;;;2.65;1.00;;;13.10;99.90;;;;;;4914746;29;20032;-68
2023/03/21 08:32:18;;;;;;;3.63;1.00;;;13.20;99.90;;;;;;4907663;29;20427;-68
2023/03/21 08:34:43;;;;;;;3.65;1.10;;;13.30;99.90;;;;;;4912517;29;20028;-69
2023/03/21 08:37:09;;;;;;;3.88;0.93;;;13.30;99.90;;;;;;4902466;29;20031;-68
2023/03/21 08:39:35;;;;;;;4.10;0.90;;;13.20;99.90;;;;;;4909858;29;20059;-68
2023/03/21 08:42:00;;;;;;;2.97;0.95;;;13.10;99.90;;;;;;4908678;29;20028;-68
2023/03/21 08:44:26;;;;;;;3.65;0.73;;;13.00;99.90;;;;;;4918967;29;20032;-73
2023/03/21 08:46:52;;;;;;;2.30;0.90;;;12.90;99.90;;;;;;4912404;29;20041;-74
2023/03/21 08:49:18;;;;;;;6.07;0.98;;;13.00;99.90;;;;;;4915025;29;20107;-73
2023/03/21 08:51:44;;;;;;;4.80;1.13;;;13.00;99.90;;;;;;4919917;29;20489;-69
2023/03/21 08:54:20;;;;;;;4.22;1.00;;;13.10;99.90;;;;;;4906524;29;20121;-71
2023/03/21 08:56:45;;;;;;;4.63;1.00;;;13.10;99.90;;;;;;4905506;29;20039;-72
2023/03/21 08:59:11;;;;;;;8.20;1.25;;;13.20;99.90;;;;;;4919843;29;20098;-68
2023/03/21 09:01:37;;;;;;;4.72;1.13;;;13.30;99.90;;;;;;4910729;29;20040;-69
2023/03/21 09:04:06;;;;;;;5.85;1.08;;;13.40;99.90;;;;;;4912518;29;20378;-69
2023/03/21 09:06:32;;;;;;;3.63;0.90;;;13.50;99.90;;;;;;4918396;29;20063;-68
2023/03/21 09:08:58;;;;;;;3.75;0.95;;;13.60;99.90;;;;;;4919826;29;20032;-68
2023/03/21 09:11:24;;;;;;;4.65;0.85;;;13.80;99.90;;;;;;4916503;29;20063;-66
2023/03/21 09:13:50;;;;;;;3.10;1.00;;;14.10;99.90;;;;;;4918727;29;20587;-67
2023/03/21 09:16:16;;;;;;;5.45;1.00;;;14.10;99.90;;;;;;4920081;29;20028;-67
2023/03/21 09:18:47;;;;;;;5.03;1.13;;;14.10;99.90;;;;;;4921409;29;20027;-68
2023/03/21 09:21:16;;;;;;;6.72;0.90;;;14.10;99.90;;;;;;4914760;29;20035;-67
2023/03/21 09:23:43;;;;;;;7.10;1.50;;;14.20;99.90;;;;;;4916614;29;20051;-68
2023/03/21 09:26:09;;;;;;;4.72;1.00;;;14.20;99.90;;;;;;4915787;29;20107;-68
2023/03/21 09:28:37;;;;;;;3.50;0.90;;;14.20;99.90;;;;;;4917633;29;20136;-68
2023/03/21 09:31:03;;;;;;;3.08;0.88;;;14.40;99.90;;;;;;4915009;29;20516;-68
2023/03/21 09:33:30;;;;;;;6.65;1.20;;;14.60;99.90;;;;;;4923319;29;20028;-68
2023/03/21 09:35:59;;;;;;;4.70;1.00;;;14.60;99.90;;;;;;4917430;29;20129;-67
2023/03/21 09:38:29;;;;;;;6.75;1.52;;;14.40;99.90;;;;;;4915809;29;20024;-67
2023/03/21 09:40:55;;;;;;;3.30;0.90;;;14.40;99.90;;;;;;4918272;29;21408;-70
2023/03/21 09:43:41;;;;;;;3.95;0.93;;;14.10;99.90;;;;;;4918508;29;20036;-72
2023/03/21 09:46:24;;;;;;;4.75;1.40;;;14.00;99.90;;;;;;4916269;29;20034;-67
2023/03/21 09:48:56;;;;;;;7.63;1.20;;;13.90;99.90;;;;;;4913311;29;20139;-70
2023/03/21 09:51:25;;;;;;;4.07;1.00;;;14.10;99.90;;;;;;4921529;29;20292;-71
2023/03/21 09:53:54;;;;;;;8.52;1.02;;;14.10;99.90;;;;;;4912997;29;20261;-71
2023/03/21 09:56:21;;;;;;;5.93;1.00;;;14.10;99.90;;;;;;4915631;29;20076;-71
2023/03/21 09:58:54;;;;;;;6.38;0.95;;;14.10;99.90;;;;;;4921014;29;20536;-71
2023/03/21 10:01:31;;;;;;;6.13;1.15;;;14.10;99.90;;;;;;4909858;29;20056;-71
2023/03/21 10:04:00;;;;;;;6.35;1.15;;;14.10;99.90;;;;;;4922864;29;20106;-70
2023/03/21 10:06:29;;;;;;;7.25;1.10;;;14.10;99.90;;;;;;4921351;29;20025;-69
2023/03/21 10:09:05;;;;;;;5.97;1.10;;;14.10;99.90;;;;;;4922625;29;20064;-70
2023/03/21 10:11:41;;;;;;;4.75;1.13;;;14.20;99.90;;;;;;4918741;29;20032;-73
2023/03/21 10:14:17;;;;;;;6.97;1.00;;;14.30;99.90;;;;;;4921288;29;20024;-72
2023/03/21 10:16:50;;;;;;;4.05;0.98;;;14.50;99.90;;;;;;4920951;29;20035;-72
2023/03/21 10:19:18;;;;;;;5.32;0.90;;;14.70;99.90;;;;;;4904773;29;20028;-71
2023/03/21 10:21:50;;;;;;;4.97;1.15;;;14.90;99.90;;;;;;4912488;29;20032;-69
2023/03/21 10:24:20;;;;;;;4.95;1.08;;;15.10;99.90;;;;;;4922559;29;20084;-71
2023/03/21 10:26:48;;;;;;;4.50;0.75;;;15.20;99.90;;;;;;4921756;29;20044;-71
2023/03/21 10:29:17;;;;;;;5.50;1.20;;;15.00;99.90;;;;;;4921592;29;20104;-72
2023/03/21 10:31:45;;;;;;;5.68;1.15;;;14.90;99.90;;;;;;4922196;29;20028;-72
2023/03/21 10:34:34;;;;;;;7.00;1.00;;;14.60;99.90;;;;;;4921707;29;20066;-71
2023/03/21 10:37:02;;;;;;;5.25;1.17;;;14.40;99.90;;;;;;4921917;29;20026;-71
2023/03/21 10:39:54;;;;;;;4.03;0.95;;;14.30;99.90;;;;;;4915278;29;20402;-72
2023/03/21 10:42:30;;;;;;;6.25;1.00;;;14.20;99.90;;;;;;4913623;29;20047;-72
2023/03/21 10:44:56;;;;;;;5.38;1.10;;;14.20;99.90;;;;;;4905062;29;20465;-75
2023/03/21 10:47:29;;;;;;;4.47;0.82;;;14.20;99.90;;;;;;4919607;29;20056;-74
2023/03/21 10:49:59;;;;;;;;;;;14.20;99.90;;;;;;4920355;29;20028;-74
2023/03/21 10:52:29;;;;;;;4.85;1.00;;;14.20;99.90;;;;;;4921656;29;19911;-74
2023/03/21 10:55:23;;;;;;;4.00;0.73;;;14.20;99.90;;;;;;4905549;29;20169;-74
2023/03/21 10:57:56;;;;;;;5.15;1.00;;;14.20;99.90;;;;;;4905672;29;20051;-73
2023/03/21 11:00:27;;;;;;;3.60;0.90;;;14.20;99.90;;;;;;4916716;29;20024;-73
2023/03/21 11:02:54;;;;;;;4.90;1.02;;;14.20;99.90;;;;;;4919479;29;20036;-73
2023/03/21 11:05:24;;;;;;;6.65;0.90;;;14.20;99.90;;;;;;4921414;29;20079;-75
2023/03/21 11:08:05;;;;;;;4.15;0.90;;;14.30;99.90;;;;;;4911587;29;20031;-68
2023/03/21 11:10:35;;;;;;;3.72;0.98;;;14.60;99.90;;;;;;4918765;29;20107;-68
2023/03/21 11:13:15;;;;;;;8.20;0.88;;;14.70;99.60;;;;;;4908285;29;20029;-67
2023/03/21 11:15:48;;;;;;;5.75;1.20;;;14.90;99.90;;;;;;4911019;29;20084;-68
2023/03/21 11:18:21;;;;;;;5.20;1.30;;;15.00;99.00;;;;;;4921323;29;20032;-68
2023/03/21 11:20:56;;;;;;;4.32;0.80;;;15.10;99.10;;;;;;4921197;29;20035;-69
2023/03/21 11:23:26;;;;;;;5.20;1.00;;;15.20;97.60;;;;;;4921171;29;20035;-68
2023/03/21 11:25:52;;;;;;;6.03;1.05;;;15.30;98.90;;;;;;4920928;29;20048;-68
2023/03/21 11:28:20;;;;;;;5.15;1.00;;;;;;;;;;4919653;29;20024;-73
2023/03/21 11:31:05;;;;;;;4.47;0.90;;;15.20;94.60;;;;;;4919928;29;20477;-69
2023/03/21 11:33:42;;;;;;;4.85;1.25;;;15.20;92.30;;;;;;4920619;29;20016;-70
2023/03/21 11:36:20;;;;;;;3.95;1.20;;;15.40;93.00;;;;;;4907670;29;20124;-69
2023/03/21 11:39:12;;;;;;;4.35;1.05;;;15.40;85.10;;;;;;4916019;29;20024;-69
2023/03/21 11:41:40;;;;;;;6.53;1.00;;;15.60;87.00;;;;;;4899329;29;20048;-70
2023/03/21 11:44:25;;;;;;;3.97;0.65;;;15.70;91.20;;;;;;4909062;29;20619;-68
2023/03/21 11:46:50;;;;;;;5.05;1.00;;;15.80;92.20;;;;;;4908426;29;20058;-69
2023/03/21 11:49:16;;;;;;;3.42;0.80;;;15.90;89.80;;;;;;4916275;29;20024;-69
2023/03/21 11:52:02;;;;;;;4.15;1.02;;;15.90;88.70;;;;;;4916262;29;20036;-68
2023/03/21 11:55:15;;;;;;;3.15;1.00;;;15.80;90.80;;;;;;4916356;29;20020;-70
2023/03/21 11:57:54;;;;;;;5.43;0.93;;;15.50;91.30;;;;;;4889922;29;20048;-74
2023/03/21 12:00:28;;;;;;;7.03;1.17;;;15.50;94.00;;;;;;4920281;29;20086;-73
2023/03/21 12:03:12;;;;;;;7.13;1.15;;;15.40;92.50;;;;;;4917670;29;20058;-71
2023/03/21 12:05:49;;;;;;;5.75;1.10;;;15.40;94.30;;;;;;4918997;29;20117;-68
2023/03/21 12:08:44;;;;;;;4.53;0.90;;;15.50;96.00;;;;;;4917977;29;20035;-67
2023/03/21 12:11:46;;;;;;;2.72;0.90;;;15.70;92.60;;;;;;4911115;29;20037;-67
2023/03/21 12:14:33;;;;;;;3.22;0.70;;;15.60;87.50;;;;;;4907728;29;20101;-68
2023/03/21 12:17:05;;;;;;;3.05;0.80;;;15.70;91.90;;;;;;4907684;29;20561;-70
2023/03/21 12:19:53;;;;;;;5.35;1.00;;;15.70;90.80;;;;;;4906730;29;20020;-68
2023/03/21 12:22:38;;;;;;;1.95;0.57;;;15.70;92.50;;;;;;4914578;29;20103;-68
2023/03/21 12:25:16;;;;;;;3.83;1.15;;;15.90;77.30;;;;;;4907575;29;20036;-68
2023/03/21 12:27:47;;;;;;;4.10;0.70;;;15.90;75.20;;;;;;4912003;29;20032;-70
2023/03/21 12:30:37;;;;;;;5.65;1.08;;;15.90;81.70;;;;;;4915543;29;20036;-69
2023/03/21 12:33:30;;;;;;;6.53;0.95;;;15.80;84.30;;;;;;4909775;29;20126;-69
2023/03/21 12:36:20;;;;;;;3.40;1.00;;;15.80;85.40;;;;;;4907170;29;20027;-69
2023/03/21 12:39:08;;;;;;;5.18;0.80;;;15.70;89.70;;;;;;4913491;29;20047;-69
2023/03/21 12:41:56;;;;;;;3.85;0.80;;;15.80;89.60;;;;;;4907004;29;20405;-70
2023/03/21 12:44:27;;;;;;;5.05;0.93;;;15.90;90.40;;;;;;4907615;29;20041;-70
2023/03/21 12:47:05;;;;;;;3.67;1.10;;;16.00;82.00;;;;;;4913795;29;20076;-69
2023/03/21 12:49:48;;;;;;;5.13;1.00;;;16.00;81.40;;;;;;4906610;29;20037;-71
2023/03/21 12:52:17;;;;;;;3.83;0.90;;;15.90;85.70;;;;;;4913544;29;20493;-69
2023/03/21 12:54:49;;;;;;;5.88;0.73;;;16.00;83.40;;;;;;4920266;29;20024;-68
2023/03/21 12:57:17;;;;;;;2.67;0.75;;;16.00;84.00;;;;;;4920914;29;20425;-68
2023/03/21 12:59:53;;;;;;;3.33;0.95;;;16.10;81.80;;;;;;4921249;29;20079;-68
2023/03/21 13:02:30;;;;;;;3.80;0.93;;;16.30;88.00;;;;;;4922731;29;20033;-69
2023/03/21 13:05:07;;;;;;;5.13;1.00;;;16.40;85.40;;;;;;4920348;29;20108;-69
2023/03/21 13:07:39;;;;;;;3.70;1.02;;;16.40;79.70;;;;;;4922659;29;20039;-69
2023/03/21 13:10:19;;;;;;;4.55;1.27;;;16.30;80.50;;;;;;4911701;29;20032;-68